Arkansas City, KS

12:19 PM CDT on May 05, 2015 (GMT -0500)
APRSWXNET | | Change Station
CLOSE
Current Station
Personal Weather Station
Location: Arkansas City, KS
Elevation: 1149 ft
Nearby Weather Stations

Elev 1149 ft 37.07 °N, 97.04 °W | Updated 26 minutes ago

Clear
Clear
75 °F
Feels Like 78 °F
N
2
Wind Variable Wind from South
Gusts 14.0 mph

Today
High -- | Low -- °F
--% Chance of Precip.
Yesterday
High -- | Low -- °F
Precip. -- in
6:29 AM 8:20 PM
Full, 97% visible
Pressure 30.02 in
Visibility 10.0 miles
Clouds Few 3600 ft
Heat Index 78 °F
Dew Point 57 °F
Humidity 53%
Rainfall in
Snow Depth Not available.
UV 9 out of 12
Pollen 10.60 out of 12
Air Quality Not available.
Flu Activity Sporadic
METAR KWLD 051654Z AUTO 16019G24KT 10SM FEW036 23/14 A3004 RMK AO2 SLP165 T02330144

More Conditions Fewer Conditions

Pressure 30.02 in
Visibility 10.0 miles
Clouds Few 3600 ft
Heat Index 78 °F
Dew Point 57 °F
Humidity 53%
Rainfall in
Snow Depth Not available.
UV 9 out of 12
Pollen 10.60 out of 12
Air Quality Not available.
Flu Activity Sporadic
METAR KWLD 051654Z AUTO 16019G24KT 10SM FEW036 23/14 A3004 RMK AO2 SLP165 T02330144

More Conditions Fewer Conditions

10-Day Weather Forecast

Almanac

Astronomy

May. 05, 2015 Rise Set
Actual Time
Civil Twilight
Nautical Twilight
Astronomical Twilight
Moon
Length of Visible Light
Length of Day
Tomorrow will be .
, % of the Moon is Illuminated

Today's Extremes

State Highs State Lows

Community

WunderPhotos

Upload Photos

1,818,944 photos uploaded!

WunderBlogs® & News

Nearby

Air Quality

  Air Quality AQ Index Pollutant
Not available.

Snow Depth

Station Depth Elevation

Earthquake Activity

City Distance Mag. Time & Date
Minimum magnitude displayed is 2.5.

Coastal Water Temperatures

Place Temperature

Stations

Nearby Weather Stations

Station Location Temp. Windchill Dew Point Humidity Wind Precip. Elev Updated Type